Latest Weather Observations for Coolangatta

IDQ60801

Issued at 12:12 am EST Monday 26 October 2020 (issued every 10 minutes, with the page automatically refreshed every 10 minutes)

About weather observations | Map of weather stations | Latest weather observations for QLD | Other Formats
Station Details ID: 040717 Name: COOLANGATTA Lat: -28.17 Lon: 153.51 Height: 4.0 m
Data from the previous 72 hours. | See also: Recent months at Coolangatta

Observations at Coolangatta are collected in the Queensland time zone, which does not include daylight savings during the summer period. Therefore 'Rain since 9am' totals and other values are based on the Queensland time zone.

Date/Time
EST
Temp
°C
App
Temp
°C
Dew
Point
°C
Rel
Hum
%
Delta-T
°C
Wind Press
QNH
hPa
Press
MSL
hPa
Rain since
9am
mm
Dir  Spd
km/h
Gust
km/h
Spd
kts
Gust
kts
26/12:00am 19.9 21.9 19.1 95 0.5 SW 7 9 4 5 1010.3 1010.2 4.2
 
Date/Time
EST
Temp
°C
App
Temp
°C
Dew
Point
°C
Rel
Hum
%
Delta-T
°C
Wind Press
QNH
hPa
Press
MSL
hPa
Rain since
9am
mm
Dir  Spd
km/h
Gust
km/h
Spd
kts
Gust
kts
25/11:30pm 19.8 21.0 19.0 95 0.5 SW 11 15 6 8 1010.7 1010.6 4.2
25/11:00pm 19.8 21.4 19.1 96 0.4 WSW 9 15 5 8 1010.9 1010.8 4.2
25/10:30pm 19.6 20.7 18.9 96 0.4 W 11 13 6 7 1010.8 1010.7 4.2
25/10:00pm 19.5 20.9 18.7 95 0.5 WSW 9 11 5 6 1010.9 1010.8 4.2
25/09:30pm 19.7 21.6 18.9 95 0.5 WSW 7 9 4 5 1011.0 1010.9 3.8
25/09:00pm 19.7 20.7 18.7 94 0.6 SW 11 17 6 9 1011.2 1011.1 3.8
25/08:30pm 20.6 21.5 18.5 88 1.3 ENE 11 15 6 8 1011.1 1011.0 3.8
25/08:00pm 20.3 20.5 18.6 90 1.1 ENE 15 19 8 10 1011.0 1010.9 3.8
25/07:30pm 19.9 22.8 18.2 90 1.1 CALM 0 6 0 3 1011.2 1011.1 3.6
25/07:13pm 20.0 21.8 18.7 92 0.8 WSW 7 13 4 7 1011.4 1011.3 3.4
25/07:00pm 20.1 20.4 18.8 92 0.8 W 15 22 8 12 1011.5 1011.4 3.4
25/06:52pm 20.3 21.3 18.6 90 1.1 NNE 11 17 6 9 1011.3 1011.2 3.4
25/06:40pm 20.5 21.2 18.8 90 1.1 NE 13 19 7 10 1010.8 1010.7 2.2
25/06:30pm 20.6 20.9 18.7 89 1.2 NE 15 19 8 10 1010.6 1010.5 0.4
25/06:00pm 20.3 20.2 18.8 91 0.9 NNE 17 20 9 11 1010.4 1010.3 0.2
25/05:30pm 21.0 21.3 18.0 83 1.9 N 13 17 7 9 1010.7 1010.6 0.2
25/05:00pm 20.9 19.6 18.1 84 1.7 NNW 22 33 12 18 1010.5 1010.4 0.0
25/04:30pm 21.0 18.3 17.6 81 2.1 N 28 37 15 20 1009.0 1008.9 0.0
25/04:28pm 20.9 17.7 17.3 80 2.2 N 30 39 16 21 1009.0 1008.9 0.0
25/04:18pm 21.0 17.9 17.4 80 2.2 N 30 41 16 22 1008.9 1008.8 0.0
25/04:00pm 21.2 18.1 17.6 80 2.2 N 30 39 16 21 1008.2 1008.1 0.0
25/03:30pm 23.0 23.0 20.9 88 1.4 N 22 32 12 17 1007.7 1007.6 0.0
25/03:00pm 23.1 22.4 21.0 88 1.4 N 26 33 14 18 1007.9 1007.8 0.0
25/02:30pm 23.1 22.9 21.2 89 1.2 N 24 32 13 17 1008.2 1008.1 0.0
25/02:00pm 23.8 22.7 21.1 85 1.8 N 28 35 15 19 1008.7 1008.6 0.0
25/01:30pm 24.0 22.8 20.9 83 2.0 N 28 33 15 18 1008.7 1008.6 0.0
25/01:00pm 25.2 24.4 20.9 77 2.8 NNE 26 37 14 20 1009.0 1008.9 0.0
25/12:30pm 25.8 25.1 21.0 75 3.2 NNE 26 33 14 18 1009.4 1009.3 0.0
25/12:00pm 25.5 25.3 20.5 74 3.3 NNE 22 30 12 16 1010.0 1009.9 0.0
25/11:30am 24.6 23.7 19.9 75 3.0 N 24 30 13 16 1010.3 1010.2 0.0
25/11:00am 25.6 25.0 20.4 73 3.4 N 24 32 13 17 1010.3 1010.2 0.0
25/10:30am 24.3 24.3 20.2 78 2.7 N 20 26 11 14 1010.7 1010.6 0.0
25/10:00am 24.5 25.5 20.2 77 2.8 N 15 26 8 14 1010.9 1010.8 0.0
25/09:30am 23.8 24.9 20.5 82 2.1 NNE 15 20 8 11 1011.1 1011.0 0.0
25/09:00am 23.4 24.0 20.2 82 2.1 NNE 17 20 9 11 1011.2 1011.1 19.6
25/08:30am 23.1 24.0 20.1 83 1.9 N 15 19 8 10 1011.4 1011.3 19.6
25/08:00am 23.4 24.3 20.0 81 2.2 N 15 20 8 11 1011.2 1011.1 19.6
25/07:30am 22.6 22.8 19.4 82 2.0 N 17 20 9 11 1011.3 1011.2 19.6
25/07:00am 22.4 22.4 19.0 81 2.2 NNW 17 20 9 11 1010.9 1010.8 19.6
25/06:30am 22.3 22.8 19.3 83 1.9 NNW 15 20 8 11 1010.6 1010.5 19.6
25/06:00am 21.5 21.0 19.2 87 1.5 NNW 20 26 11 14 1010.3 1010.2 19.6
25/05:30am 20.9 20.3 18.8 88 1.3 NNW 20 28 11 15 1010.1 1010.0 19.6
25/05:00am 20.9 20.3 18.8 88 1.3 NNW 20 26 11 14 1009.8 1009.7 19.6
25/04:30am 21.0 20.4 18.9 88 1.3 NNW 20 28 11 15 1009.7 1009.6 19.6
25/04:00am 20.7 20.3 19.0 90 1.1 NNW 19 26 10 14 1009.4 1009.3 19.6
25/03:30am 21.0 20.1 19.1 89 1.2 NNW 22 28 12 15 1009.0 1008.9 19.6
25/03:00am 20.9 20.4 19.0 89 1.2 NNW 20 28 11 15 1008.9 1008.8 19.6
25/02:30am 20.7 20.1 18.8 89 1.2 NNW 20 32 11 17 1009.0 1008.9 19.6
25/02:00am 20.5 20.0 19.0 91 0.9 NW 20 28 11 15 1008.7 1008.6 19.6
25/01:30am 20.3 19.9 18.8 91 0.9 NNW 19 24 10 13 1008.8 1008.7 19.6
25/01:00am 20.1 19.7 18.8 92 0.8 NW 19 26 10 14 1009.1 1009.0 19.6
25/12:30am 19.8 20.8 18.6 93 0.7 NW 11 15 6 8 1009.5 1009.4 19.6
25/12:00am 19.6 20.5 18.4 93 0.7 WNW 11 17 6 9 1010.0 1009.9 19.6
 
Date/Time
EST
Temp
°C
App
Temp
°C
Dew
Point
°C
Rel
Hum
%
Delta-T
°C
Wind Press
QNH
hPa
Press
MSL
hPa
Rain since
9am
mm
Dir  Spd
km/h
Gust
km/h
Spd
kts
Gust
kts
24/11:30pm 19.9 19.6 18.2 90 1.1 NW 17 22 9 12 1010.2 1010.1 19.6
24/11:00pm 20.0 19.3 18.3 90 1.1 NNW 19 24 10 13 1010.2 1010.1 19.6
24/10:30pm 19.8 20.1 18.8 94 0.6 NNW 15 20 8 11 1010.6 1010.5 19.6
24/10:00pm 20.1 20.2 19.1 94 0.6 N 17 20 9 11 1010.4 1010.3 19.6
24/09:30pm 20.2 21.8 19.2 94 0.6 N 9 11 5 6 1010.6 1010.5 19.6
24/09:00pm 20.4 21.3 19.2 93 0.8 W 13 17 7 9 1010.6 1010.5 19.6
24/08:30pm 20.8 20.5 19.5 92 0.8 N 20 26 11 14 1011.0 1010.9 19.6
24/08:00pm 20.5 20.0 19.2 92 0.8 N 20 28 11 15 1011.5 1011.4 19.6
24/07:43pm 20.3 18.1 18.6 90 1.1 N 28 37 15 20 1011.7 1011.6 19.6
24/07:30pm 20.3 18.2 19.0 92 0.8 N 28 37 15 20 1011.4 1011.3 19.4
24/07:00pm 20.3 19.1 19.3 94 0.6 N 24 32 13 17 1011.0 1010.9 19.0
24/06:54pm 20.3 19.1 19.3 94 0.6 N 24 30 13 16 1010.8 1010.7 19.0
24/06:30pm 20.3 20.0 19.5 95 0.5 NNW 20 26 11 14 1010.7 1010.6 18.8
24/06:10pm 20.4 20.1 19.6 95 0.5 N 20 28 11 15 1010.5 1010.4 18.6
24/06:00pm 20.3 19.2 19.5 95 0.5 N 24 32 13 17 1010.5 1010.4 18.6
24/05:30pm 20.4 19.8 19.7 96 0.4 N 22 28 12 15 1010.6 1010.5 18.0
24/05:29pm 20.4 19.8 19.7 96 0.4 N 22 28 12 15 1010.6 1010.5 18.0
24/05:00pm 20.1 19.7 19.3 95 0.5 N 20 26 11 14 1010.7 1010.6 15.2
24/04:54pm 20.2 19.8 19.4 95 0.5 N 20 24 11 13 1010.5 1010.4 14.4
24/04:51pm 20.2 19.8 19.4 95 0.5 N 20 24 11 13 1010.5 1010.4 13.8
24/04:31pm 20.3 20.5 19.3 94 0.6 N 17 22 9 12 1010.5 1010.4 11.8
24/04:30pm 20.3 20.8 19.3 94 0.6 N 15 22 8 12 1010.5 1010.4 11.8
24/04:00pm 20.2 22.7 19.0 93 0.8 NNW 4 9 2 5 1010.1 1010.0 9.4
24/03:55pm 20.2 22.1 19.0 93 0.8 NNW 7 11 4 6 1010.1 1010.0 9.0
24/03:49pm 20.2 21.7 18.9 92 0.8 NNW 9 17 5 9 1010.3 1010.2 8.6
24/03:43pm 20.3 21.1 19.0 92 0.8 NNW 13 20 7 11 1010.3 1010.2 8.0
24/03:30pm 20.5 18.3 18.8 90 1.1 NNW 28 39 15 21 1010.3 1010.2 7.2
24/03:28pm 20.5 17.9 18.6 89 1.2 NNW 30 39 16 21 1010.3 1010.2 6.4
24/03:25pm 21.6 19.7 20.1 91 1.0 N 30 39 16 21 1010.4 1010.3 4.4
24/03:00pm 22.3 21.3 20.4 89 1.2 N 26 35 14 19 1009.8 1009.7 1.4
24/02:30pm 22.6 21.1 20.3 87 1.5 N 28 35 15 19 1010.1 1010.0 1.2
24/02:00pm 22.8 21.4 20.5 87 1.5 N 28 35 15 19 1010.5 1010.4 1.2
24/01:30pm 22.8 21.6 20.1 85 1.7 N 26 35 14 19 1010.7 1010.6 1.0
24/01:00pm 23.1 24.7 19.9 82 2.1 NNW 11 20 6 11 1011.1 1011.0 1.0
24/12:30pm 22.8 23.6 20.7 88 1.4 NNW 17 22 9 12 1011.4 1011.3 1.0
24/12:00pm 22.5 22.6 20.4 88 1.4 N 20 30 11 16 1011.8 1011.7 0.4
24/11:30am 22.8 22.3 20.7 88 1.4 N 24 30 13 16 1011.9 1011.8 0.2
24/11:00am 24.3 22.9 19.6 75 3.0 N 26 35 14 19 1012.1 1012.0 0.0
24/10:30am 24.4 23.2 19.2 73 3.3 N 24 33 13 18 1012.5 1012.5 0.0
24/10:00am 24.5 23.2 19.8 75 3.0 N 26 33 14 18 1013.0 1013.0 0.0
24/09:30am 24.0 23.0 19.7 77 2.8 N 24 32 13 17 1013.1 1013.1 0.0
24/09:00am 23.7 22.9 19.2 76 2.9 NNW 22 32 12 17 1013.3 1013.3 1.6
24/08:30am 22.1 21.4 20.2 89 1.2 N 24 30 13 16 1013.7 1013.7 1.6
24/08:00am 22.4 20.7 19.8 85 1.7 N 28 32 15 17 1013.5 1013.5 1.6
24/07:30am 21.8 19.9 19.4 86 1.5 N 28 35 15 19 1013.7 1013.7 1.6
24/07:00am 21.2 20.2 19.7 91 1.0 N 24 30 13 16 1013.7 1013.7 1.6
24/06:49am 20.9 20.9 19.7 93 0.8 N 19 24 10 13 1013.7 1013.7 1.6
24/06:38am 20.5 19.3 19.3 93 0.8 N 24 32 13 17 1013.8 1013.8 1.6
24/06:30am 20.5 18.6 19.3 93 0.8 N 28 37 15 20 1013.8 1013.8 1.0
24/06:23am 20.6 18.7 19.4 93 0.8 N 28 35 15 19 1013.9 1013.9 0.4
24/06:08am 21.1 20.2 19.0 88 1.3 NW 22 35 12 19 1013.7 1013.7 0.0
24/06:00am 21.7 21.1 18.9 84 1.8 NW 20 33 11 18 1013.5 1013.5 0.0
24/05:30am 22.3 20.7 18.3 78 2.5 NNW 24 32 13 17 1013.0 1013.0 0.0
24/05:00am 22.2 20.6 18.4 79 2.4 NNW 24 32 13 17 1012.6 1012.6 0.0
24/04:30am 22.2 20.4 18.8 81 2.1 N 26 33 14 18 1012.4 1012.4 0.0
24/04:00am 21.9 21.5 18.9 83 1.9 NNW 19 26 10 14 1012.3 1012.3 0.0
24/03:30am 21.8 21.1 18.6 82 2.0 NNW 20 28 11 15 1012.2 1012.1 0.0
24/03:00am 21.7 20.8 18.3 81 2.1 NNW 20 26 11 14 1012.4 1012.4 0.0
24/02:30am 21.8 20.3 18.6 82 2.0 N 24 30 13 16 1012.2 1012.1 0.0
24/02:00am 21.4 21.9 18.4 83 1.9 NNW 13 17 7 9 1012.5 1012.5 0.0
24/01:30am 21.4 22.2 18.2 82 2.0 NNW 11 17 6 9 1012.5 1012.5 0.0
24/01:00am 21.6 22.4 18.2 81 2.1 NW 11 15 6 8 1012.8 1012.8 0.0
24/12:30am 22.1 21.4 18.7 81 2.1 NNW 20 28 11 15 1013.4 1013.4 0.0
24/12:00am 21.8 21.4 18.8 83 1.9 NNW 19 24 10 13 1013.7 1013.7 0.0
 
Date/Time
EST
Temp
°C
App
Temp
°C
Dew
Point
°C
Rel
Hum
%
Delta-T
°C
Wind Press
QNH
hPa
Press
MSL
hPa
Rain since
9am
mm
Dir  Spd
km/h
Gust
km/h
Spd
kts
Gust
kts
23/11:30pm 22.0 21.4 18.4 80 2.3 NNW 19 30 10 16 1014.0 1014.0 0.0
23/11:00pm 22.1 21.6 19.1 83 1.9 N 20 26 11 14 1013.8 1013.8 0.0
23/10:30pm 22.1 21.5 18.5 80 2.3 NNW 19 28 10 15 1014.0 1014.0 0.0
23/10:00pm 22.1 21.7 18.1 78 2.5 NNW 17 22 9 12 1014.2 1014.2 0.0
23/09:30pm 22.0 21.9 17.8 77 2.6 NNW 15 20 8 11 1014.0 1014.0 0.0
23/09:00pm 22.1 22.5 18.1 78 2.5 NNW 13 17 7 9 1014.1 1014.1 0.0
23/08:30pm 22.2 21.8 18.8 81 2.1 N 19 22 10 12 1013.9 1013.9 0.0
23/08:00pm 22.3 21.6 18.7 80 2.3 N 20 24 11 13 1014.1 1014.1 0.0
23/07:30pm 22.4 21.4 18.8 80 2.3 N 22 28 12 15 1014.2 1014.2 0.0
23/07:00pm 22.5 21.6 18.3 77 2.6 N 20 30 11 16 1013.9 1013.9 0.0
23/06:30pm 22.7 21.3 18.0 75 2.9 N 22 28 12 15 1013.7 1013.7 0.0
23/06:00pm 22.8 21.4 17.9 74 3.1 N 22 30 12 16 1013.6 1013.6 0.0
23/05:30pm 23.1 21.6 17.8 72 3.3 N 22 28 12 15 1013.2 1013.2 0.0
23/05:00pm 23.7 22.2 17.7 69 3.7 N 22 30 12 16 1012.7 1012.7 0.0
23/04:30pm 23.6 21.7 17.6 69 3.7 NNE 24 30 13 16 1012.7 1012.7 0.0
23/04:00pm 24.6 22.8 17.8 66 4.3 N 24 30 13 16 1013.0 1013.0 0.0
23/03:30pm 24.5 22.8 18.2 68 4.0 NNE 24 30 13 16 1012.9 1012.9 0.0
23/03:00pm 24.4 22.7 17.1 63 4.5 NNE 22 30 12 16 1013.3 1013.3 0.0
23/02:30pm 24.5 22.8 18.0 67 4.1 NNE 24 30 13 16 1013.4 1013.4 0.0
23/02:00pm 24.6 22.8 17.8 66 4.3 NNE 24 28 13 15 1013.8 1013.8 0.0
23/01:30pm 25.3 23.3 17.5 62 4.9 NNE 24 30 13 16 1014.2 1014.2 0.0
23/01:00pm 25.6 23.6 17.5 61 5.1 N 24 30 13 16 1014.5 1014.5 0.0
23/12:30pm 24.3 22.1 16.8 63 4.6 N 24 30 13 16 1014.9 1014.9 0.0
23/12:00pm 25.5 24.1 17.9 63 4.8 NNE 22 30 12 16 1015.1 1015.1 0.0
23/11:30am 24.7 23.8 18.2 67 4.1 NNE 20 24 11 13 1015.3 1015.3 0.0
23/11:00am 24.5 23.7 17.2 63 4.5 NNE 17 22 9 12 1015.5 1015.5 0.0
23/10:30am 24.5 24.3 17.7 66 4.2 NE 15 20 8 11 1015.8 1015.8 0.0
23/10:00am 24.6 24.9 17.8 66 4.3 NE 13 19 7 10 1016.1 1016.1 0.0
23/09:30am 23.3 23.1 17.5 70 3.6 N 15 19 8 10 1016.6 1016.6 0.0
23/09:00am 23.4 23.2 17.6 70 3.6 N 15 17 8 9 1016.6 1016.6 2.0
23/08:30am 23.1 23.1 17.3 70 3.6 N 13 17 7 9 1016.3 1016.3 2.0
23/08:00am 23.1 23.1 17.1 69 3.7 N 13 17 7 9 1016.1 1016.1 2.0
23/07:30am 22.1 23.4 17.2 74 3.0 W 6 7 3 4 1016.0 1016.0 2.0
23/07:00am 20.4 22.4 17.0 81 2.1 WSW 2 6 1 3 1015.9 1015.9 2.0
23/06:30am 19.3 21.1 17.3 88 1.2 WSW 4 7 2 4 1015.8 1015.8 2.0
23/06:00am 18.6 20.1 16.6 88 1.2 SW 4 7 2 4 1015.4 1015.4 2.0
23/05:30am 18.3 19.4 16.6 90 1.0 SW 6 6 3 3 1015.1 1015.1 2.0
23/05:00am 17.9 19.0 16.6 92 0.8 WSW 6 7 3 4 1015.0 1015.0 2.0
23/04:30am 17.8 19.9 16.3 91 0.9 CALM 0 0 0 0 1014.7 1014.7 2.0
23/04:00am 17.6 19.6 15.9 90 1.0 CALM 0 0 0 0 1014.7 1014.7 2.0
23/03:30am 18.0 20.1 16.2 89 1.1 CALM 0 0 0 0 1014.7 1014.7 2.0
23/03:00am 18.3 20.0 16.3 88 1.2 WSW 2 7 1 4 1014.6 1014.6 2.0
23/02:30am 18.5 20.2 16.1 86 1.4 WSW 2 7 1 4 1014.5 1014.5 2.0
23/02:00am 18.7 19.8 16.5 87 1.3 W 6 7 3 4 1014.8 1014.8 2.0
23/01:30am 18.6 19.3 16.2 86 1.4 WSW 7 9 4 5 1015.2 1015.2 2.0
23/01:00am 18.8 20.8 15.9 83 1.7 CALM 0 6 0 3 1015.5 1015.5 2.0
23/12:30am 18.8 19.7 16.6 87 1.3 WSW 7 9 4 5 1015.9 1015.9 2.0

Other formats

Comma delimited format used in spreadsheet applications
http://www.bom.gov.au/fwo/IDQ60801/IDQ60801.94592.axf

JavaScript Object Notation format (JSON) in row-major order
http://www.bom.gov.au/fwo/IDQ60801/IDQ60801.94592.json

Data quality

Most of these data are generated automatically and are frequently updated. Quality checks on data are not normally performed. It is possible for incorrect values to appear. Refer to information at About Latest Weather Observations and please check the disclaimer before using these data.